Terminal Aerodrome Forecast
Issued by NWS

Current Version | Previous Version | Graphics & Text | Print | Product List | Glossary On
Versions: 1 2 3 4 5 6 7 8 9 10 11 12 13 14 15 16 17
621
FTUS41 KPBZ 240542
TAFMGW
TAF
KMGW 240542Z 2406/2506 VRB05KT P6SM SKC
     FM240900 35004KT P6SM BKN070
     FM241200 36004KT P6SM BKN025
     FM241500 35005KT P6SM BKN035
     FM242000 01005KT P6SM SKC=

USA.gov is the U.S. government's official web portal to all federal, state and local government web resources and services.